createdAt,value
2018-05-03T00:00:26.734Z,99156.78
2018-05-03T00:02:53.478Z,99158.54
2018-05-03T00:05:20.218Z,99153.89
2018-05-03T00:07:46.908Z,99155.03
2018-05-03T00:10:13.611Z,99144.89
2018-05-03T00:12:40.289Z,99147.13
2018-05-03T00:15:06.897Z,99147.47
2018-05-03T00:17:33.641Z,99149.16
2018-05-03T00:20:00.391Z,99139.99
2018-05-03T00:22:27.035Z,99136.05
2018-05-03T00:24:53.774Z,99132.77
2018-05-03T00:27:20.416Z,99135.86
2018-05-03T00:29:47.170Z,99131.02
2018-05-03T00:32:13.821Z,99135.01
2018-05-03T00:34:40.452Z,99126.11
2018-05-03T00:37:07.207Z,99123.31
2018-05-03T00:39:33.941Z,99125.46
2018-05-03T00:42:00.689Z,99121.64
2018-05-03T00:44:27.231Z,99118.86
2018-05-03T00:46:53.974Z,99120.30
2018-05-03T00:49:20.724Z,99121.06
2018-05-03T00:51:47.463Z,99114.58
2018-05-03T00:54:26.189Z,99116.87
2018-05-03T00:56:52.924Z,99113.05
2018-05-03T00:59:19.674Z,99124.80
2018-05-03T01:01:46.356Z,99121.60
2018-05-03T01:04:13.070Z,99121.66
2018-05-03T01:06:39.712Z,99118.80
2018-05-03T01:09:06.571Z,99120.55
2018-05-03T01:11:33.302Z,99120.83
2018-05-03T01:14:00.052Z,99119.49
2018-05-03T01:16:26.798Z,99116.42
2018-05-03T01:18:53.544Z,99117.75
2018-05-03T01:21:20.185Z,99121.59
2018-05-03T01:23:46.927Z,99121.16
2018-05-03T01:26:13.565Z,99127.54
2018-05-03T01:28:40.213Z,99123.61
2018-05-03T01:31:07.056Z,99126.48
2018-05-03T01:33:33.805Z,99131.06
2018-05-03T01:36:12.629Z,99128.62
2018-05-03T01:38:39.368Z,99128.30
2018-05-03T01:41:06.221Z,99125.27
2018-05-03T01:43:32.973Z,99123.52
2018-05-03T01:45:59.712Z,99127.03
2018-05-03T01:48:26.450Z,99130.44
2018-05-03T01:50:53.203Z,99128.27
2018-05-03T01:53:19.942Z,99133.21
2018-05-03T01:55:46.602Z,99162.34
2018-05-03T01:58:13.335Z,99151.92
2018-05-03T02:00:39.978Z,99149.36
2018-05-03T02:03:06.577Z,99171.06
2018-05-03T02:05:33.369Z,99173.81
2018-05-03T02:08:00.110Z,99170.44
2018-05-03T02:10:26.859Z,99167.82
2018-05-03T02:12:53.602Z,99162.40
2018-05-03T02:15:20.353Z,99172.91
2018-05-03T02:17:47.001Z,99175.75
2018-05-03T02:20:14.054Z,99165.91
2018-05-03T02:22:40.797Z,99170.86
2018-05-03T02:25:07.534Z,99164.89
2018-05-03T02:27:34.287Z,99159.36
2018-05-03T02:30:01.030Z,99157.97
2018-05-03T02:32:27.776Z,99148.41
2018-05-03T02:34:54.520Z,99142.51
2018-05-03T02:37:21.369Z,99141.66
2018-05-03T02:39:48.108Z,99142.45
2018-05-03T02:42:14.861Z,99144.95
2018-05-03T02:44:42.633Z,99144.36
2018-05-03T02:47:09.374Z,99141.22
2018-05-03T02:49:36.121Z,99140.63
2018-05-03T02:52:02.862Z,99151.05
2018-05-03T02:54:29.614Z,99147.97
2018-05-03T02:57:08.639Z,99149.30
2018-05-03T02:59:47.454Z,99146.70
2018-05-03T03:05:31.708Z,99126.77
2018-05-03T03:14:49.012Z,99127.66
2018-05-03T03:17:33.771Z,99127.62
2018-05-03T03:23:38.172Z,99126.98
2018-05-03T03:29:30.915Z,99125.78
2018-05-03T03:32:14.859Z,99115.36
2018-05-03T03:34:41.696Z,99111.54
2018-05-03T03:37:32.286Z,99113.22
2018-05-03T03:40:17.051Z,99106.05
2018-05-03T03:45:43.180Z,99092.47
2018-05-03T03:48:09.935Z,99098.09
2018-05-03T03:50:36.675Z,99107.34
2018-05-03T03:53:03.436Z,99099.64
2018-05-03T03:55:30.164Z,99099.85
2018-05-03T03:57:56.913Z,99098.05
2018-05-03T04:00:24.675Z,99105.48
2018-05-03T04:02:51.427Z,99103.68
2018-05-03T04:05:18.009Z,99116.22
2018-05-03T04:07:44.719Z,99113.24
2018-05-03T04:10:11.397Z,99115.00
2018-05-03T04:12:38.099Z,99123.50
2018-05-03T04:15:04.850Z,99122.44
2018-05-03T04:20:45.614Z,99125.48
2018-05-03T04:23:31.605Z,99120.44
2018-05-03T04:26:01.926Z,99112.73
2018-05-03T04:28:28.674Z,99110.45
2018-05-03T04:30:55.417Z,99108.05
2018-05-03T04:33:22.168Z,99124.42
2018-05-03T04:35:48.846Z,99127.69
2018-05-03T04:38:15.557Z,99139.48
2018-05-03T04:40:42.199Z,99143.25
2018-05-03T04:43:08.939Z,99143.72
2018-05-03T04:45:35.690Z,99135.15
2018-05-03T04:48:02.434Z,99142.16
2018-05-03T04:50:29.221Z,99159.97
2018-05-03T04:52:57.284Z,99157.01
2018-05-03T04:55:23.897Z,99162.87
2018-05-03T04:57:51.087Z,99160.92
2018-05-03T05:00:17.796Z,99163.95
2018-05-03T05:02:44.438Z,99171.71
2018-05-03T05:05:11.087Z,99165.36
2018-05-03T05:07:37.826Z,99159.28
2018-05-03T05:10:04.482Z,99177.09
2018-05-03T05:12:31.070Z,99173.94
2018-05-03T05:14:57.863Z,99185.34
2018-05-03T05:17:24.499Z,99190.31
2018-05-03T05:19:51.253Z,99189.40
2018-05-03T05:22:18.100Z,99188.69
2018-05-03T05:24:44.842Z,99191.09
2018-05-03T05:27:11.585Z,99194.14
2018-05-03T05:29:38.337Z,99200.65
2018-05-03T05:32:05.077Z,99209.27
2018-05-03T05:34:31.825Z,99205.97
2018-05-03T05:36:58.669Z,99202.52
2018-05-03T05:39:25.361Z,99206.02
2018-05-03T05:41:52.159Z,99202.97
2018-05-03T05:44:18.920Z,99206.74
2018-05-03T05:46:45.548Z,99215.44
2018-05-03T05:49:12.303Z,99206.65
2018-05-03T05:51:39.043Z,99211.55
2018-05-03T05:54:05.793Z,99207.68
2018-05-03T05:56:32.537Z,99209.03
2018-05-03T05:58:59.382Z,99206.34
2018-05-03T06:01:26.128Z,99198.14
2018-05-03T06:03:52.881Z,99201.91
2018-05-03T06:06:19.727Z,99199.91
2018-05-03T06:08:46.466Z,99209.02
2018-05-03T06:11:13.238Z,99209.81
2018-05-03T06:13:39.966Z,99210.34
2018-05-03T06:16:06.701Z,99207.61
2018-05-03T06:18:33.451Z,99216.48
2018-05-03T06:21:00.302Z,99209.67
2018-05-03T06:23:26.941Z,99215.98
2018-05-03T06:25:53.753Z,99214.17
2018-05-03T06:28:20.434Z,99216.86
2018-05-03T06:30:47.176Z,99216.65
2018-05-03T06:33:13.929Z,99215.48
2018-05-03T06:35:40.666Z,99207.59
2018-05-03T06:38:07.415Z,99211.84
2018-05-03T06:40:34.060Z,99219.66
2018-05-03T06:43:00.858Z,99217.41
2018-05-03T06:45:27.452Z,99223.84
2018-05-03T06:47:54.149Z,99229.42
2018-05-03T06:50:20.829Z,99225.28
2018-05-03T06:52:48.303Z,99223.03
2018-05-03T06:55:15.041Z,99220.74
2018-05-03T06:57:41.796Z,99219.41
2018-05-03T07:00:08.534Z,99217.95
2018-05-03T07:02:36.316Z,99214.45
2018-05-03T07:05:03.972Z,99218.33
2018-05-03T07:07:31.736Z,99215.19
2018-05-03T07:09:58.568Z,99219.31
2018-05-03T07:12:25.158Z,99223.91
2018-05-03T07:14:51.863Z,99218.13
2018-05-03T07:17:18.621Z,99224.00
2018-05-03T07:19:45.363Z,99218.42
2018-05-03T07:22:12.120Z,99218.17
2018-05-03T07:24:38.853Z,99222.89
2018-05-03T07:27:06.531Z,99225.88
2018-05-03T07:29:33.396Z,99226.08
2018-05-03T07:32:00.016Z,99228.95
2018-05-03T07:34:26.765Z,99231.86
2018-05-03T07:36:53.508Z,99227.95
2018-05-03T07:39:20.249Z,99235.78
2018-05-03T07:41:46.940Z,99236.78
2018-05-03T07:44:14.660Z,99241.27
2018-05-03T07:46:41.408Z,99236.23
2018-05-03T07:49:08.149Z,99241.39
2018-05-03T07:51:34.904Z,99233.59
2018-05-03T07:54:01.643Z,99235.28
2018-05-03T07:56:28.383Z,99235.70
2018-05-03T07:58:55.136Z,99235.13
2018-05-03T08:01:21.874Z,99226.41
2018-05-03T08:03:48.725Z,99217.55
2018-05-03T08:06:15.475Z,99220.23
2018-05-03T08:08:42.220Z,99225.30
2018-05-03T08:11:09.067Z,99229.41
2018-05-03T08:13:35.812Z,99233.94
2018-05-03T08:16:02.563Z,99243.59
2018-05-03T08:18:29.402Z,99243.80
2018-05-03T08:20:56.152Z,99248.31
2018-05-03T08:23:22.901Z,99242.30
2018-05-03T08:25:49.744Z,99243.84
2018-05-03T08:28:16.384Z,99252.07
2018-05-03T08:30:43.135Z,99247.48
2018-05-03T08:33:09.917Z,99241.28
2018-05-03T08:35:36.628Z,99244.45
2018-05-03T08:38:03.477Z,99250.61
2018-05-03T08:40:30.220Z,99247.82
2018-05-03T08:42:56.965Z,99249.26
2018-05-03T08:45:23.710Z,99245.45
2018-05-03T08:47:50.451Z,99250.38
2018-05-03T08:50:17.201Z,99256.83
2018-05-03T08:52:43.951Z,99259.13
2018-05-03T08:55:10.795Z,99260.16
2018-05-03T08:57:37.454Z,99262.30
2018-05-03T09:00:04.283Z,99261.77
2018-05-03T09:02:31.139Z,99262.34
2018-05-03T09:04:57.875Z,99260.58
2018-05-03T09:07:24.579Z,99264.63
2018-05-03T09:09:51.367Z,99260.92
2018-05-03T09:12:18.120Z,99261.78
2018-05-03T09:14:44.866Z,99252.16
2018-05-03T09:17:11.709Z,99255.63
2018-05-03T09:19:38.453Z,99259.70
2018-05-03T09:22:05.200Z,99264.79
2018-05-03T09:24:32.971Z,99267.09
2018-05-03T09:27:00.535Z,99265.15
2018-05-03T09:29:27.177Z,99263.56
2018-05-03T09:31:53.926Z,99264.22
2018-05-03T09:34:20.667Z,99253.75
2018-05-03T09:36:47.310Z,99253.82
2018-05-03T09:39:14.147Z,99262.36
2018-05-03T09:41:40.806Z,99248.34
2018-05-03T09:44:07.441Z,99260.82
2018-05-03T09:46:34.290Z,99257.91
2018-05-03T09:49:01.042Z,99253.95
2018-05-03T09:51:27.686Z,99250.81
2018-05-03T09:53:54.422Z,99258.81
2018-05-03T09:56:21.172Z,99249.53
2018-05-03T09:58:47.811Z,99253.45
2018-05-03T10:01:14.559Z,99256.20
2018-05-03T10:03:41.304Z,99264.19
2018-05-03T10:06:08.049Z,99260.14
2018-05-03T10:08:34.796Z,99265.75
2018-05-03T10:11:01.489Z,99263.84
2018-05-03T10:13:28.192Z,99272.16
2018-05-03T10:15:54.993Z,99268.70
2018-05-03T10:18:21.569Z,99262.81
2018-05-03T10:20:48.322Z,99264.63
2018-05-03T10:23:15.176Z,99265.30
2018-05-03T10:25:41.914Z,99261.84
2018-05-03T10:28:08.658Z,99266.73
2018-05-03T10:30:35.353Z,99270.45
2018-05-03T10:33:02.055Z,99265.72
2018-05-03T10:35:28.700Z,99270.02
2018-05-03T10:37:55.535Z,99271.34
2018-05-03T10:40:22.288Z,99270.69
2018-05-03T10:42:49.031Z,99271.83
2018-05-03T10:45:15.878Z,99271.98
2018-05-03T10:47:42.519Z,99270.17
2018-05-03T10:50:09.272Z,99270.36
2018-05-03T10:52:36.010Z,99274.27
2018-05-03T10:55:02.765Z,99271.81
2018-05-03T10:57:29.508Z,99265.02
2018-05-03T10:59:56.254Z,99273.17
2018-05-03T11:02:22.997Z,99266.31
2018-05-03T11:04:49.734Z,99262.81
2018-05-03T11:07:16.490Z,99258.28
2018-05-03T11:09:43.236Z,99265.38
2018-05-03T11:12:09.919Z,99264.16
2018-05-03T11:14:36.619Z,99258.59
2018-05-03T11:17:03.370Z,99257.42
2018-05-03T11:19:30.113Z,99253.96
2018-05-03T11:21:56.960Z,99270.38
2018-05-03T11:24:23.701Z,99256.39
2018-05-03T11:26:50.426Z,99272.97
2018-05-03T11:29:17.192Z,99263.66
2018-05-03T11:31:43.945Z,99263.40
2018-05-03T11:34:10.683Z,99273.27
2018-05-03T11:36:37.541Z,99263.69
2018-05-03T11:39:04.278Z,99262.42
2018-05-03T11:41:31.034Z,99260.08
2018-05-03T11:43:57.770Z,99256.34
2018-05-03T11:46:24.519Z,99259.08
2018-05-03T11:48:51.326Z,99252.52
2018-05-03T11:51:18.011Z,99263.94
2018-05-03T11:53:44.751Z,99257.33
2018-05-03T11:56:11.501Z,99265.12
2018-05-03T11:58:38.247Z,99258.55
2018-05-03T12:01:04.996Z,99257.80
2018-05-03T12:03:31.637Z,99266.16
2018-05-03T12:05:58.387Z,99267.18
2018-05-03T12:08:25.131Z,99267.40
2018-05-03T12:10:51.871Z,99265.12
2018-05-03T12:13:18.721Z,99258.44
2018-05-03T12:15:45.468Z,99260.08
2018-05-03T12:18:12.207Z,99267.38
2018-05-03T12:20:38.951Z,99258.38
2018-05-03T12:23:05.704Z,99267.88
2018-05-03T12:25:32.442Z,99259.14
2018-05-03T12:27:59.133Z,99266.38
2018-05-03T12:30:25.840Z,99263.55
2018-05-03T12:32:53.504Z,99255.17
2018-05-03T12:35:20.252Z,99256.07
2018-05-03T12:37:46.888Z,99259.95
2018-05-03T12:40:13.536Z,99262.50
2018-05-03T12:42:40.276Z,99253.52
2018-05-03T12:45:08.871Z,99252.05
2018-05-03T12:47:35.670Z,99241.75
2018-05-03T12:50:02.459Z,99243.53
2018-05-03T12:52:29.100Z,99251.64
2018-05-03T12:54:55.851Z,99245.34
2018-05-03T12:57:22.695Z,99251.34
2018-05-03T12:59:49.443Z,99241.67
2018-05-03T13:02:16.398Z,99246.61
2018-05-03T13:04:43.248Z,99244.63
2018-05-03T13:07:09.989Z,99248.74
2018-05-03T13:09:36.738Z,99246.93
2018-05-03T13:12:03.379Z,99240.89
2018-05-03T13:14:30.060Z,99248.16
2018-05-03T13:16:56.757Z,99232.89
2018-05-03T13:19:23.710Z,99254.87
2018-05-03T13:21:51.483Z,99249.89
2018-05-03T13:24:18.123Z,99242.69
2018-05-03T13:26:44.873Z,99247.70
2018-05-03T13:29:11.617Z,99246.86
2018-05-03T13:31:38.365Z,99250.95
2018-05-03T13:34:05.204Z,99240.25
2018-05-03T13:36:31.954Z,99258.14
2018-05-03T13:38:58.697Z,99255.78
2018-05-03T13:41:25.455Z,99263.51
2018-05-03T13:43:52.298Z,99254.26
2018-05-03T13:46:19.038Z,99256.30
2018-05-03T13:48:45.894Z,99254.10
2018-05-03T13:51:12.633Z,99263.09
2018-05-03T13:53:39.381Z,99263.73
2018-05-03T13:56:06.222Z,99266.97
2018-05-03T13:58:32.872Z,99278.41
2018-05-03T14:00:59.617Z,99269.72
2018-05-03T14:03:26.469Z,99265.33
2018-05-03T14:05:53.103Z,99281.12
2018-05-03T14:08:19.856Z,99275.63
2018-05-03T14:10:46.699Z,99273.34
2018-05-03T14:13:13.450Z,99280.25
2018-05-03T14:15:40.299Z,99282.22
2018-05-03T14:18:07.050Z,99283.00
2018-05-03T14:20:33.892Z,99277.28
2018-05-03T14:23:00.533Z,99289.14
2018-05-03T14:25:27.224Z,99284.33
2018-05-03T14:27:53.924Z,99289.02
2018-05-03T14:30:20.663Z,99290.37
2018-05-03T14:32:47.414Z,99289.61
2018-05-03T14:35:14.258Z,99296.81
2018-05-03T14:37:40.909Z,99293.67
2018-05-03T14:40:07.648Z,99292.58
2018-05-03T14:42:34.396Z,99295.34
2018-05-03T14:45:01.157Z,99304.87
2018-05-03T14:47:28.095Z,99312.95
2018-05-03T14:49:54.781Z,99316.08
2018-05-03T14:52:21.492Z,99310.55
2018-05-03T14:54:48.224Z,99297.27
2018-05-03T14:57:14.989Z,99284.09
2018-05-03T14:59:41.713Z,99289.09
2018-05-03T15:02:08.568Z,99301.30
2018-05-03T15:04:35.205Z,99333.03
2018-05-03T15:07:01.848Z,99369.05
2018-05-03T15:09:28.599Z,99390.36
2018-05-03T15:11:55.450Z,99405.68
2018-05-03T15:14:22.188Z,99446.02
2018-05-03T15:16:49.040Z,99573.53
2018-05-03T15:19:15.990Z,99489.98
2018-05-03T15:21:42.732Z,99452.69
2018-05-03T15:24:09.600Z,99410.05
2018-05-03T15:26:36.331Z,99421.33
2018-05-03T15:29:03.892Z,99424.92
2018-05-03T15:31:30.835Z,99427.55
2018-05-03T15:33:57.585Z,99430.80
2018-05-03T15:36:24.435Z,99428.04
2018-05-03T15:38:51.276Z,99419.91
2018-05-03T15:41:18.035Z,99434.87
2018-05-03T15:43:44.772Z,99429.72
2018-05-03T15:46:11.519Z,99441.94
2018-05-03T15:48:38.270Z,99436.50
2018-05-03T15:51:05.118Z,99435.11
2018-05-03T15:53:31.964Z,99446.33
2018-05-03T15:55:58.704Z,99439.89
2018-05-03T15:58:52.771Z,99454.40
2018-05-03T16:01:19.516Z,99464.00
2018-05-03T16:03:46.276Z,99456.64
2018-05-03T16:06:13.004Z,99472.98
2018-05-03T16:08:39.757Z,99459.55
2018-05-03T16:11:06.506Z,99436.33
2018-05-03T16:13:33.244Z,99483.98
2018-05-03T16:16:00.091Z,99471.22
2018-05-03T16:18:26.739Z,99483.02
2018-05-03T16:20:53.580Z,99476.19
2018-05-03T16:23:20.335Z,99488.16
2018-05-03T16:25:46.920Z,99506.02
2018-05-03T16:28:13.662Z,99478.84
2018-05-03T16:30:40.368Z,99485.44
2018-05-03T16:33:07.112Z,99490.94
2018-05-03T16:35:33.957Z,99507.65
2018-05-03T16:38:00.696Z,99505.12
2018-05-03T16:40:27.498Z,99497.51
2018-05-03T16:42:54.306Z,99507.34
2018-05-03T16:45:21.036Z,99494.91
2018-05-03T16:47:47.681Z,99496.45
2018-05-03T16:50:14.432Z,99495.47
2018-05-03T16:52:41.180Z,99506.98
2018-05-03T16:55:07.939Z,99511.61
2018-05-03T16:57:34.874Z,99515.20
2018-05-03T17:00:02.156Z,99521.77
2018-05-03T17:02:28.886Z,99528.45
2018-05-03T17:04:55.783Z,99526.74
2018-05-03T19:22:52.274Z,99798.36
2018-05-03T19:25:20.772Z,99802.83
2018-05-03T19:27:49.236Z,99806.93
2018-05-03T19:30:17.764Z,99814.26
2018-05-03T19:46:45.787Z,99850.97
2018-05-03T19:49:14.325Z,99847.25
2018-05-03T19:51:42.840Z,99862.83
2018-05-03T19:54:11.435Z,99874.64
2018-05-03T19:56:39.972Z,99878.25
2018-05-03T19:59:10.195Z,99871.18
2018-05-03T20:01:38.782Z,99879.56
2018-05-03T20:04:07.481Z,99887.49
2018-05-03T20:06:36.186Z,99889.08
2018-05-03T20:11:39.926Z,99886.63
2018-05-03T20:14:08.434Z,99888.25
2018-05-03T20:16:36.982Z,99889.47
2018-05-03T20:19:05.611Z,99896.48
2018-05-03T20:21:34.186Z,99892.70
2018-05-03T20:24:02.758Z,99893.87
2018-05-03T20:26:31.393Z,99902.97
2018-05-03T20:29:00.272Z,99898.30
2018-05-03T20:31:28.796Z,99896.50
2018-05-03T20:33:57.374Z,99885.94
2018-05-03T20:36:25.990Z,99881.80
2018-05-03T20:38:54.681Z,99881.27
2018-05-03T20:43:59.282Z,99901.26
2018-05-03T20:46:28.631Z,99909.02
2018-05-03T20:51:33.604Z,99914.73
2018-05-03T20:54:02.175Z,99924.75
2018-05-03T20:59:09.788Z,99940.80
2018-05-03T21:01:38.320Z,99950.09
2018-05-03T21:04:06.928Z,99957.78
2018-05-03T21:06:35.527Z,99968.88
2018-05-03T21:09:04.411Z,99976.59
2018-05-03T21:11:33.578Z,99991.34
2018-05-03T21:14:02.241Z,99996.44
2018-05-03T21:16:31.392Z,99992.34
2018-05-03T21:18:59.975Z,100006.53
2018-05-03T21:21:28.508Z,100012.14
2018-05-03T21:23:57.057Z,100027.47
2018-05-03T21:28:58.985Z,100035.44
2018-05-03T21:34:03.559Z,100055.23
2018-05-03T21:36:32.170Z,100068.91
2018-05-03T21:39:00.836Z,100076.05
2018-05-03T21:41:29.519Z,100080.52
2018-05-03T21:43:58.457Z,100083.39
2018-05-03T21:46:27.162Z,100079.95
2018-05-03T21:48:55.773Z,100077.91
2018-05-03T21:51:24.337Z,100078.59
2018-05-03T21:53:52.877Z,100091.29
2018-05-03T21:56:21.477Z,100091.29
2018-05-03T21:58:50.162Z,100078.72
2018-05-03T22:01:18.904Z,100068.09
2018-05-03T22:06:20.265Z,100070.94
2018-05-03T22:08:48.878Z,100077.16
2018-05-03T22:11:17.424Z,100074.39
2018-05-03T22:13:46.067Z,100070.20
2018-05-03T22:16:14.993Z,100069.66
2018-05-03T22:18:43.510Z,100069.37
2018-05-03T22:23:44.837Z,100054.44
2018-05-03T22:26:13.402Z,100056.67
2018-05-03T22:31:17.654Z,100063.59
2018-05-03T22:33:46.271Z,100062.27
2018-05-03T22:36:14.790Z,100065.29
2018-05-03T22:38:43.311Z,100062.12
2018-05-03T22:41:11.794Z,100066.52
2018-05-03T22:43:40.332Z,100073.52
2018-05-03T22:46:08.859Z,100058.29
2018-05-03T22:48:37.357Z,100054.68
2018-05-03T22:51:05.999Z,100059.70
2018-05-03T22:53:34.511Z,100064.73
2018-05-03T22:58:35.776Z,100055.20
2018-05-03T23:03:37.222Z,100035.77
2018-05-03T23:06:05.753Z,100033.83
2018-05-03T23:08:34.335Z,100020.15
2018-05-03T23:11:03.009Z,100004.66
2018-05-03T23:13:31.589Z,100010.88
2018-05-03T23:16:00.216Z,100001.52
2018-05-03T23:21:02.012Z,99999.40
2018-05-03T23:23:30.532Z,99987.30
2018-05-03T23:25:59.122Z,99979.63
2018-05-03T23:28:27.809Z,99984.33
2018-05-03T23:30:56.375Z,99983.33
2018-05-03T23:33:24.942Z,99976.27
2018-05-03T23:35:53.489Z,99981.14
2018-05-03T23:40:54.714Z,99995.48
2018-05-03T23:43:23.276Z,99992.77
2018-05-03T23:45:51.799Z,99990.38
2018-05-03T23:48:20.289Z,99988.59
2018-05-03T23:50:48.837Z,99979.84
2018-05-03T23:53:17.376Z,99975.09
2018-05-03T23:55:45.952Z,99971.81
2018-05-03T23:58:14.639Z,99974.32
